Hovedside
METAR-TAF:

METAR-TAF

Lufthavner :

Hambantota, Sri Lanka

breddegrad: 06-17-20N, lengdegrad: 81-07-25E, høyde over havet: 48 m

Gjeldene værobservasjon

Denne rapporten ble laget for 1 time og 5 minutter siden, klokken 21:10 UTC
Vind 6 kt fra Vest-sørvest
Temperatur 26°C
Luftfuktighet 100%
Trykk 1008 hPa
Sikt 10 km eller mer
ingen skyer under 1500 m og ingen bygeskyer

METAR: VCRI 142110Z 24006KT CAVOK 26/26 Q1008 NOSIG

Tid: 03:45 (22:15 UTC)

Varsel

Denne rapporten ble laget for 5 timer og 15 minutter siden, klokken 17:00 UTC
Varsel gyldig fra 14. klokken 18 UTC til 15. klokken 24 UTC
Vind 12 kt fra Sørvest
Sikt 10 km eller mer
Få skyer i en høyde av 1800 ft
Blir
fra 15. klokken 03 UTC til 15. klokken 05 UTC
Vind 12 kt fra Vest med vindkast opp mot 23 kt

TAF: VCRI 141700Z 1418/1524 23012KT 9999 FEW018 TX35/1507Z TN26/1500Z BECMG 1503/1505 26012G23KT

Værobservasjoner og værvarsel for over 4000 flyplasser (METAR- og TAF-rapporter).

Tilgjengelige stasjoner er representert av de røde og gule prikkene på kartet.

Hold musepekeren over prikken for å se navnet på stasjonen.

Klikk så for å se værobservasjoner og -varsler.

For å forandre kartet kan du klikke på den grønne knappen med svart kryss for å zoome inn, på den grønne knappen med strek for å zoome ut, eller på de grønne pilene for å se tilstøtende kart.


METAR-TAF: